createdAt,value
2018-08-28T00:02:00.974Z,17.08
2018-08-28T00:04:31.554Z,17.07
2018-08-28T00:07:05.764Z,17.10
2018-08-28T00:09:36.619Z,17.15
2018-08-28T00:12:07.616Z,17.17
2018-08-28T00:14:41.167Z,17.13
2018-08-28T00:17:15.254Z,17.08
2018-08-28T00:19:45.742Z,17.01
2018-08-28T00:22:16.179Z,16.95
2018-08-28T00:24:46.686Z,16.84
2018-08-28T00:27:17.232Z,16.79
2018-08-28T00:29:47.767Z,16.81
2018-08-28T00:32:21.866Z,16.82
2018-08-28T00:34:52.289Z,16.80
2018-08-28T00:37:22.778Z,16.77
2018-08-28T00:39:53.191Z,16.74
2018-08-28T00:42:23.466Z,16.73
2018-08-28T00:44:53.883Z,16.68
2018-08-28T00:47:30.196Z,16.58
2018-08-28T00:50:01.247Z,16.54
2018-08-28T00:52:32.117Z,16.57
2018-08-28T00:55:02.338Z,16.71
2018-08-28T00:57:32.812Z,16.82
2018-08-28T01:00:03.375Z,16.88
2018-08-28T01:02:33.787Z,16.92
2018-08-28T01:05:04.592Z,16.95
2018-08-28T01:07:34.993Z,16.95
2018-08-28T01:10:05.826Z,16.92
2018-08-28T01:12:41.103Z,16.88
2018-08-28T01:15:11.395Z,16.85
2018-08-28T01:17:41.861Z,16.79
2018-08-28T01:20:12.220Z,16.73
2018-08-28T01:22:42.715Z,16.69
2018-08-28T01:25:13.086Z,16.62
2018-08-28T01:27:43.413Z,16.56
2018-08-28T01:30:13.931Z,16.57
2018-08-28T01:32:46.287Z,16.54
2018-08-28T01:35:16.587Z,16.50
2018-08-28T01:37:46.817Z,16.45
2018-08-28T01:40:17.057Z,16.38
2018-08-28T01:42:47.418Z,16.33
2018-08-28T01:45:17.838Z,16.31
2018-08-28T01:47:49.274Z,16.24
2018-08-28T01:50:19.683Z,16.26
2018-08-28T01:52:50.200Z,16.26
2018-08-28T01:55:20.533Z,16.24
2018-08-28T01:57:50.799Z,16.23
2018-08-28T02:00:21.282Z,16.22
2018-08-28T02:02:51.903Z,16.24
2018-08-28T02:05:22.180Z,16.24
2018-08-28T02:07:59.730Z,16.26
2018-08-28T02:10:30.361Z,16.27
2018-08-28T02:13:00.428Z,16.25
2018-08-28T02:15:32.030Z,16.24
2018-08-28T02:18:02.482Z,16.24
2018-08-28T02:20:33.146Z,16.26
2018-08-28T02:23:03.731Z,16.28
2018-08-28T02:25:34.178Z,16.28
2018-08-28T02:28:04.603Z,16.29
2018-08-28T02:30:35.109Z,16.33
2018-08-28T02:33:07.315Z,16.36
2018-08-28T02:35:37.827Z,16.39
2018-08-28T02:38:08.030Z,16.45
2018-08-28T02:40:38.424Z,16.49
2018-08-28T02:43:13.371Z,16.54
2018-08-28T02:45:45.407Z,16.62
2018-08-28T02:48:16.152Z,16.66
2018-08-28T02:50:46.558Z,16.69
2018-08-28T02:53:16.980Z,16.75
2018-08-28T02:55:47.231Z,16.80
2018-08-28T02:58:17.499Z,16.84
2018-08-28T03:00:47.481Z,16.89
2018-08-28T03:03:17.570Z,16.92
2018-08-28T03:06:13.202Z,16.95
2018-08-28T03:08:43.529Z,17.01
2018-08-28T03:11:14.539Z,17.07
2018-08-28T03:13:44.474Z,17.08
2018-08-28T03:16:18.653Z,17.10
2018-08-28T03:18:48.578Z,17.09
2018-08-28T03:21:18.561Z,17.07
2018-08-28T03:23:48.645Z,17.00
2018-08-28T03:26:20.190Z,16.91
2018-08-28T03:28:53.471Z,16.83
2018-08-28T03:31:24.402Z,16.80
2018-08-28T03:33:54.537Z,16.79
2018-08-28T03:36:25.255Z,16.79
2018-08-28T03:38:55.694Z,16.79
2018-08-28T03:41:27.083Z,16.78
2018-08-28T03:43:58.028Z,16.77
2018-08-28T03:46:28.701Z,16.79
2018-08-28T03:48:59.056Z,16.80
2018-08-28T03:51:29.355Z,16.77
2018-08-28T03:54:00.946Z,16.71
2018-08-28T03:56:31.373Z,16.65
2018-08-28T03:59:01.675Z,16.56
2018-08-28T04:01:39.811Z,16.51
2018-08-28T04:04:27.970Z,16.47
2018-08-28T04:07:07.868Z,16.43
2018-08-28T04:09:38.531Z,16.41
2018-08-28T04:12:22.715Z,16.42
2018-08-28T04:14:53.227Z,16.48
2018-08-28T04:17:24.228Z,16.52
2018-08-28T04:19:54.964Z,16.52
2018-08-28T04:22:25.448Z,16.53
2018-08-28T04:24:55.728Z,16.55
2018-08-28T04:27:26.307Z,16.59
2018-08-28T04:29:56.842Z,16.61
2018-08-28T04:32:27.890Z,16.56
2018-08-28T04:34:58.834Z,16.53
2018-08-28T04:37:29.688Z,16.48
2018-08-28T04:40:01.246Z,16.42
2018-08-28T04:42:32.474Z,16.38
2018-08-28T04:45:02.979Z,16.34
2018-08-28T04:47:33.934Z,16.30
2018-08-28T04:50:04.595Z,16.33
2018-08-28T04:52:35.938Z,16.36
2018-08-28T04:55:06.787Z,16.38
2018-08-28T04:57:37.597Z,16.42
2018-08-28T05:00:09.032Z,16.44
2018-08-28T05:02:40.590Z,16.51
2018-08-28T05:05:11.523Z,16.55
2018-08-28T05:07:42.065Z,16.65
2018-08-28T05:10:13.008Z,16.71
2018-08-28T05:12:44.015Z,16.77
2018-08-28T05:15:15.008Z,16.80
2018-08-28T05:17:46.052Z,16.87
2018-08-28T05:20:17.043Z,16.96
2018-08-28T05:22:47.662Z,17.04
2018-08-28T05:25:18.130Z,17.11
2018-08-28T05:27:49.609Z,17.24
2018-08-28T05:30:20.543Z,17.32
2018-08-28T05:32:56.471Z,17.30
2018-08-28T05:35:27.202Z,17.42
2018-08-28T05:37:58.139Z,17.62
2018-08-28T05:40:28.747Z,17.73
2018-08-28T05:42:59.558Z,18.00
2018-08-28T05:45:30.280Z,18.23
2018-08-28T05:48:01.517Z,18.39
2018-08-28T05:50:32.602Z,18.62
2018-08-28T05:53:02.970Z,18.81
2018-08-28T05:55:33.358Z,19.04
2018-08-28T05:58:03.867Z,19.35
2018-08-28T06:00:34.324Z,19.49
2018-08-28T06:03:05.030Z,19.60
2018-08-28T06:05:35.485Z,19.73
2018-08-28T06:08:06.221Z,19.93
2018-08-28T06:10:36.482Z,20.03
2018-08-28T06:13:06.869Z,20.24
2018-08-28T06:15:37.353Z,20.13
2018-08-28T06:18:07.735Z,20.48
2018-08-28T06:20:38.078Z,21.08
2018-08-28T06:23:08.816Z,21.92
2018-08-28T06:25:39.694Z,22.54
2018-08-28T06:28:10.779Z,23.26
2018-08-28T06:30:41.707Z,23.74
2018-08-28T06:33:12.459Z,24.76
2018-08-28T06:35:43.266Z,25.63
2018-08-28T06:38:14.289Z,24.78
2018-08-28T06:40:45.068Z,25.30
2018-08-28T06:43:16.122Z,24.99
2018-08-28T06:45:47.963Z,25.62
2018-08-28T06:48:18.526Z,26.46
2018-08-28T06:50:49.479Z,27.38
2018-08-28T06:53:20.943Z,27.38
2018-08-28T06:55:51.889Z,26.34
2018-08-28T06:58:22.900Z,26.83
2018-08-28T07:00:54.078Z,27.09
2018-08-28T07:03:25.097Z,27.84
2018-08-28T07:05:55.867Z,28.52
2018-08-28T07:08:26.878Z,28.77
2018-08-28T07:10:57.939Z,29.50
2018-08-28T07:13:28.559Z,30.16
2018-08-28T07:15:59.491Z,30.18
2018-08-28T07:18:30.506Z,30.61
2018-08-28T07:21:01.269Z,30.30
2018-08-28T07:23:32.151Z,29.90
2018-08-28T07:26:03.084Z,28.86
2018-08-28T07:28:33.708Z,29.09
2018-08-28T07:31:04.396Z,29.30
2018-08-28T07:33:35.278Z,28.92
2018-08-28T07:36:06.084Z,28.00
2018-08-28T07:38:36.733Z,27.34
2018-08-28T07:41:07.801Z,26.25
2018-08-28T07:43:38.715Z,26.51
2018-08-28T07:46:09.464Z,26.00
2018-08-28T07:48:40.295Z,26.12
2018-08-28T07:51:11.171Z,26.57
2018-08-28T07:53:41.906Z,27.36
2018-08-28T07:56:12.791Z,27.93
2018-08-28T07:58:47.689Z,26.24
2018-08-28T08:01:18.537Z,26.66
2018-08-28T08:03:49.824Z,28.51
2018-08-28T08:06:20.488Z,28.87
2018-08-28T08:08:51.402Z,28.68
2018-08-28T08:11:22.258Z,27.87
2018-08-28T08:13:53.338Z,29.02
2018-08-28T08:16:24.284Z,27.86
2018-08-28T08:18:54.923Z,28.52
2018-08-28T08:21:26.023Z,30.00
2018-08-28T08:23:57.010Z,30.62
2018-08-28T08:26:28.003Z,30.56
2018-08-28T08:28:58.943Z,31.95
2018-08-28T08:31:29.605Z,31.12
2018-08-28T08:34:00.612Z,30.73
2018-08-28T08:36:31.650Z,30.82
2018-08-28T08:39:02.936Z,31.09
2018-08-28T08:41:33.621Z,31.60
2018-08-28T08:44:04.380Z,32.05
2018-08-28T08:46:35.449Z,32.93
2018-08-28T08:49:06.145Z,32.74
2018-08-28T08:51:37.099Z,32.04
2018-08-28T08:54:08.087Z,31.81
2018-08-28T08:56:38.820Z,32.65
2018-08-28T08:59:09.826Z,32.62
2018-08-28T09:01:40.687Z,31.27
2018-08-28T09:04:11.165Z,32.05
2018-08-28T09:06:41.854Z,33.05
2018-08-28T09:09:12.831Z,32.64
2018-08-28T09:11:43.774Z,32.74
2018-08-28T09:14:15.159Z,32.25
2018-08-28T09:16:45.903Z,33.42
2018-08-28T09:19:17.203Z,32.00
2018-08-28T09:21:48.736Z,32.91
2018-08-28T09:24:19.535Z,31.10
2018-08-28T09:26:50.673Z,32.43
2018-08-28T09:29:21.629Z,33.40
2018-08-28T09:31:52.639Z,33.79
2018-08-28T09:34:23.279Z,33.51
2018-08-28T09:36:54.224Z,33.58
2018-08-28T09:39:24.871Z,33.50
2018-08-28T09:41:55.713Z,34.02
2018-08-28T09:44:26.299Z,34.55
2018-08-28T09:46:57.316Z,34.33
2018-08-28T09:49:27.984Z,33.93
2018-08-28T09:51:58.955Z,34.29
2018-08-28T09:54:30.228Z,34.65
2018-08-28T09:57:00.910Z,34.08
2018-08-28T09:59:31.796Z,33.82
2018-08-28T10:02:02.825Z,35.86
2018-08-28T10:04:33.547Z,34.97
2018-08-28T10:07:04.467Z,34.10
2018-08-28T10:09:35.446Z,33.54
2018-08-28T10:12:06.484Z,34.72
2018-08-28T10:14:37.119Z,35.75
2018-08-28T10:17:08.018Z,34.16
2018-08-28T10:19:38.562Z,34.04
2018-08-28T10:22:09.408Z,32.63
2018-08-28T10:24:39.995Z,32.69
2018-08-28T10:27:10.554Z,34.23
2018-08-28T10:29:42.202Z,34.35
2018-08-28T10:32:19.424Z,32.86
2018-08-28T10:34:50.546Z,33.91
2018-08-28T10:37:21.236Z,33.23
2018-08-28T10:39:52.089Z,33.53
2018-08-28T10:42:22.996Z,34.07
2018-08-28T10:44:54.600Z,33.21
2018-08-28T10:47:25.135Z,33.63
2018-08-28T10:49:55.973Z,33.77
2018-08-28T10:52:27.244Z,33.94
2018-08-28T10:54:57.638Z,32.32
2018-08-28T10:57:28.541Z,32.85
2018-08-28T10:59:59.217Z,35.62
2018-08-28T11:02:29.714Z,36.59
2018-08-28T11:05:00.310Z,32.94
2018-08-28T11:07:31.255Z,34.08
2018-08-28T11:10:01.795Z,35.23
2018-08-28T11:12:32.700Z,33.30
2018-08-28T11:15:03.755Z,33.27
2018-08-28T11:17:34.234Z,34.45
2018-08-28T11:20:04.773Z,33.23
2018-08-28T11:22:35.267Z,33.86
2018-08-28T11:25:07.200Z,34.70
2018-08-28T11:27:38.196Z,35.28
2018-08-28T11:30:09.258Z,34.00
2018-08-28T11:32:40.334Z,33.88
2018-08-28T11:35:10.955Z,35.04
2018-08-28T11:37:41.902Z,33.82
2018-08-28T11:40:13.220Z,34.60
2018-08-28T11:42:44.354Z,34.01
2018-08-28T11:45:15.530Z,33.93
2018-08-28T11:47:46.971Z,35.14
2018-08-28T11:50:17.602Z,36.75
2018-08-28T11:52:48.645Z,37.43
2018-08-28T11:55:23.550Z,37.42
2018-08-28T11:57:54.911Z,37.21
2018-08-28T12:00:26.050Z,37.45
2018-08-28T12:02:57.379Z,38.90
2018-08-28T12:05:28.091Z,36.80
2018-08-28T12:07:58.576Z,35.49
2018-08-28T12:10:29.439Z,37.81
2018-08-28T12:13:00.046Z,36.61
2018-08-28T12:15:30.675Z,35.93
2018-08-28T12:18:02.602Z,38.16
2018-08-28T12:20:33.580Z,39.96
2018-08-28T12:23:04.141Z,40.18
2018-08-28T12:25:34.694Z,40.71
2018-08-28T12:28:05.463Z,39.51
2018-08-28T12:30:36.113Z,37.94
2018-08-28T12:33:06.481Z,35.50
2018-08-28T12:35:36.649Z,38.27
2018-08-28T12:38:07.146Z,36.71
2018-08-28T12:40:37.601Z,37.35
2018-08-28T12:43:08.566Z,40.07
2018-08-28T12:45:39.178Z,39.71
2018-08-28T12:48:09.537Z,38.84
2018-08-28T12:50:40.190Z,38.43
2018-08-28T12:53:10.809Z,40.38
2018-08-28T12:55:47.193Z,38.17
2018-08-28T12:58:17.802Z,40.08
2018-08-28T13:00:47.817Z,39.41
2018-08-28T13:03:18.237Z,39.73
2018-08-28T13:05:54.669Z,40.13
2018-08-28T13:08:25.269Z,38.87
2018-08-28T13:10:55.759Z,39.47
2018-08-28T13:13:26.386Z,39.74
2018-08-28T13:15:57.224Z,41.27
2018-08-28T13:18:27.954Z,40.81
2018-08-28T13:20:58.755Z,40.65
2018-08-28T13:23:29.448Z,39.33
2018-08-28T13:26:00.075Z,39.94
2018-08-28T13:28:30.818Z,40.89
2018-08-28T13:31:01.759Z,38.27
2018-08-28T13:33:32.459Z,36.83
2018-08-28T13:36:03.447Z,39.56
2018-08-28T13:38:34.106Z,40.11
2018-08-28T13:41:04.473Z,38.41
2018-08-28T13:43:35.843Z,40.69
2018-08-28T13:46:06.570Z,40.79
2018-08-28T13:48:37.619Z,37.61
2018-08-28T13:51:15.509Z,36.05
2018-08-28T13:53:46.955Z,34.48
2018-08-28T13:56:17.527Z,37.21
2018-08-28T13:58:47.561Z,36.75
2018-08-28T14:01:18.900Z,38.07
2018-08-28T14:03:49.161Z,40.01
2018-08-28T14:06:20.106Z,39.14
2018-08-28T14:08:51.581Z,40.20
2018-08-28T14:11:22.121Z,37.43
2018-08-28T14:13:52.209Z,37.08
2018-08-28T14:16:22.621Z,39.44
2018-08-28T14:18:53.109Z,40.04
2018-08-28T14:21:23.646Z,41.25
2018-08-28T14:24:02.258Z,39.20
2018-08-28T14:26:33.037Z,41.70
2018-08-28T14:29:03.386Z,42.32
2018-08-28T14:31:33.636Z,40.16
2018-08-28T14:34:04.315Z,36.67
2018-08-28T14:36:34.768Z,35.92
2018-08-28T14:39:06.361Z,37.54
2018-08-28T14:41:36.461Z,39.95
2018-08-28T14:44:08.830Z,40.18
2018-08-28T14:46:39.277Z,40.24
2018-08-28T14:49:09.878Z,39.90
2018-08-28T14:51:40.285Z,40.38
2018-08-28T14:54:10.857Z,38.26
2018-08-28T14:56:41.897Z,37.55
2018-08-28T14:59:13.509Z,38.22
2018-08-28T15:01:44.243Z,39.71
2018-08-28T15:04:15.299Z,39.99
2018-08-28T15:06:46.363Z,40.71
2018-08-28T15:09:16.933Z,39.91
2018-08-28T15:11:49.425Z,38.25
2018-08-28T15:14:21.623Z,39.44
2018-08-28T15:16:53.513Z,39.53
2018-08-28T15:19:23.974Z,41.13
2018-08-28T15:21:54.486Z,41.80
2018-08-28T15:24:25.372Z,42.07
2018-08-28T15:26:55.694Z,40.89
2018-08-28T15:29:28.493Z,40.72
2018-08-28T15:31:59.066Z,41.29
2018-08-28T15:34:29.594Z,41.33
2018-08-28T15:37:00.050Z,40.79
2018-08-28T15:39:30.701Z,41.41
2018-08-28T15:42:01.095Z,40.02
2018-08-28T15:44:31.665Z,40.86
2018-08-28T15:47:03.117Z,40.75
2018-08-28T15:49:33.626Z,40.99
2018-08-28T15:52:15.573Z,41.51
2018-08-28T15:54:46.513Z,41.66
2018-08-28T15:57:17.174Z,39.32
2018-08-28T15:59:47.701Z,39.46
2018-08-28T16:02:19.218Z,40.66
2018-08-28T16:04:49.920Z,40.99
2018-08-28T16:07:20.593Z,40.69
2018-08-28T16:09:51.934Z,41.02
2018-08-28T16:12:29.706Z,40.50
2018-08-28T16:15:06.270Z,38.85
2018-08-28T16:17:37.835Z,38.21
2018-08-28T16:20:08.644Z,37.82
2018-08-28T16:22:42.950Z,38.86
2018-08-28T16:25:13.800Z,36.54
2018-08-28T16:27:44.369Z,36.70
2018-08-28T16:30:14.852Z,36.40
2018-08-28T16:32:45.769Z,37.09
2018-08-28T16:35:16.355Z,36.68
2018-08-28T16:37:47.085Z,36.15
2018-08-28T16:40:17.782Z,35.46
2018-08-28T16:42:48.469Z,35.79
2018-08-28T16:45:19.524Z,36.05
2018-08-28T16:51:02.859Z,36.04
2018-08-28T16:53:33.815Z,35.12
2018-08-28T16:56:06.031Z,35.02
2018-08-28T16:58:36.870Z,35.43
2018-08-28T17:01:08.003Z,35.66
2018-08-28T17:03:38.936Z,35.44
2018-08-28T17:06:19.539Z,34.39
2018-08-28T17:08:50.531Z,32.77
2018-08-28T17:11:21.677Z,31.57
2018-08-28T17:13:52.641Z,30.66
2018-08-28T17:16:23.926Z,29.94
2018-08-28T17:18:54.657Z,29.29
2018-08-28T17:21:25.513Z,28.47
2018-08-28T17:23:56.279Z,28.08
2018-08-28T17:26:27.507Z,27.78
2018-08-28T17:28:58.228Z,27.42
2018-08-28T17:31:29.005Z,27.11
2018-08-28T17:33:59.979Z,26.77
2018-08-28T17:36:31.119Z,26.38
2018-08-28T17:39:01.811Z,26.06
2018-08-28T17:41:32.755Z,25.74
2018-08-28T17:44:03.803Z,25.38
2018-08-28T17:46:35.122Z,25.06
2018-08-28T17:49:06.273Z,24.64
2018-08-28T17:51:36.789Z,24.31
2018-08-28T17:54:08.143Z,24.00
2018-08-28T17:56:39.366Z,23.77
2018-08-28T17:59:09.794Z,23.57
2018-08-28T18:01:40.232Z,23.39
2018-08-28T18:04:10.729Z,23.20
2018-08-28T18:06:41.091Z,23.06
2018-08-28T18:09:11.496Z,22.95
2018-08-28T18:11:41.983Z,22.80
2018-08-28T18:14:12.411Z,22.61
2018-08-28T18:16:42.743Z,22.44
2018-08-28T18:19:13.110Z,22.28
2018-08-28T18:21:43.748Z,22.11
2018-08-28T18:24:14.172Z,21.91
2018-08-28T18:26:47.741Z,21.77
2018-08-28T18:29:18.235Z,21.61
2018-08-28T18:31:48.634Z,21.45
2018-08-28T18:34:19.002Z,21.32
2018-08-28T18:36:49.410Z,21.20
2018-08-28T18:39:19.783Z,21.09
2018-08-28T18:41:50.324Z,21.05
2018-08-28T18:44:20.616Z,20.96
2018-08-28T18:46:51.285Z,20.86
2018-08-28T18:49:21.570Z,20.78
2018-08-28T18:51:52.196Z,20.62
2018-08-28T18:54:22.676Z,20.55
2018-08-28T18:56:53.350Z,20.52
2018-08-28T18:59:23.887Z,20.44
2018-08-28T19:01:54.433Z,20.39
2018-08-28T19:04:24.857Z,20.35
2018-08-28T19:06:55.560Z,20.41
2018-08-28T19:09:26.100Z,20.40
2018-08-28T19:11:56.826Z,20.32
2018-08-28T19:14:28.509Z,20.24
2018-08-28T19:16:58.985Z,20.15
2018-08-28T19:19:42.049Z,20.15
2018-08-28T19:22:12.544Z,20.24
2018-08-28T19:24:43.128Z,20.27
2018-08-28T19:27:14.143Z,20.37
2018-08-28T19:29:44.905Z,20.23
2018-08-28T19:32:15.678Z,19.91
2018-08-28T19:34:46.044Z,19.69
2018-08-28T19:37:16.709Z,19.56
2018-08-28T19:39:47.234Z,19.40
2018-08-28T19:42:28.936Z,19.30
2018-08-28T19:45:00.055Z,19.24
2018-08-28T19:47:30.895Z,19.17
2018-08-28T19:50:03.067Z,19.10
2018-08-28T19:52:34.792Z,19.06
2018-08-28T19:55:05.910Z,19.04
2018-08-28T19:57:36.778Z,18.89
2018-08-28T20:00:10.111Z,18.87
2018-08-28T20:02:41.455Z,18.72
2018-08-28T20:05:14.497Z,18.63
2018-08-28T20:07:45.913Z,18.70
2018-08-28T20:10:18.058Z,18.71
2018-08-28T20:12:49.480Z,18.65
2018-08-28T20:15:21.511Z,18.67
2018-08-28T20:17:52.542Z,18.70
2018-08-28T20:20:23.121Z,18.69
2018-08-28T20:22:55.081Z,18.70
2018-08-28T20:25:27.009Z,18.70
2018-08-28T20:27:57.925Z,18.69
2018-08-28T20:30:31.962Z,18.72
2018-08-28T20:33:05.606Z,18.67
2018-08-28T20:35:39.642Z,18.66
2018-08-28T20:38:10.598Z,18.59
2018-08-28T20:40:42.099Z,18.52
2018-08-28T20:43:15.313Z,18.29
2018-08-28T20:45:47.235Z,18.09
2018-08-28T20:48:19.152Z,18.11
2018-08-28T20:51:06.103Z,18.17
2018-08-28T20:53:37.791Z,18.27
2018-08-28T20:56:09.773Z,18.32
2018-08-28T20:58:42.843Z,18.19
2018-08-28T21:01:14.744Z,18.12
2018-08-28T21:03:47.467Z,18.14
2018-08-28T21:06:24.175Z,18.13
2018-08-28T21:08:56.126Z,18.15
2018-08-28T21:11:28.189Z,18.12
2018-08-28T21:14:00.698Z,18.01
2018-08-28T21:16:31.277Z,17.92
2018-08-28T21:19:01.711Z,17.82
2018-08-28T21:21:39.189Z,17.68
2018-08-28T21:24:09.657Z,17.66
2018-08-28T21:26:42.816Z,17.67
2018-08-28T21:29:14.195Z,17.58
2018-08-28T21:31:44.779Z,17.67
2018-08-28T21:34:15.438Z,17.73
2018-08-28T21:36:47.714Z,17.80
2018-08-28T21:39:19.016Z,17.79
2018-08-28T21:41:49.588Z,17.69
2018-08-28T21:44:20.194Z,17.65
2018-08-28T21:46:51.258Z,17.68
2018-08-28T21:49:22.577Z,17.72
2018-08-28T21:51:53.239Z,17.70
2018-08-28T21:54:24.866Z,17.63
2018-08-28T21:56:57.602Z,17.51
2018-08-28T21:59:28.413Z,17.46
2018-08-28T22:01:59.611Z,17.49
2018-08-28T22:04:30.564Z,17.40
2018-08-28T22:07:06.762Z,17.36
2018-08-28T22:09:39.884Z,17.38
2018-08-28T22:12:10.275Z,17.30
2018-08-28T22:14:41.434Z,17.23
2018-08-28T22:17:13.584Z,17.17
2018-08-28T22:19:43.611Z,17.13
2018-08-28T22:22:13.956Z,17.11
2018-08-28T22:24:44.134Z,17.11
2018-08-28T22:27:14.477Z,17.11
2018-08-28T22:29:46.109Z,17.07
2018-08-28T22:32:18.738Z,17.09
2018-08-28T22:34:50.587Z,17.08
2018-08-28T22:37:21.275Z,17.04
2018-08-28T22:39:52.363Z,17.01
2018-08-28T22:42:29.832Z,16.96
2018-08-28T22:45:01.624Z,16.91
2018-08-28T22:47:32.440Z,16.90
2018-08-28T22:50:05.215Z,16.87
2018-08-28T22:52:36.064Z,16.80
2018-08-28T22:55:06.995Z,16.82
2018-08-28T22:57:38.030Z,16.80
2018-08-28T23:00:13.023Z,16.79
2018-08-28T23:02:43.965Z,16.77
2018-08-28T23:05:15.088Z,16.75
2018-08-28T23:07:45.926Z,16.67
2018-08-28T23:10:16.914Z,16.61
2018-08-28T23:12:51.426Z,16.51
2018-08-28T23:15:28.728Z,16.55
2018-08-28T23:17:59.271Z,16.51
2018-08-28T23:20:30.184Z,16.47
2018-08-28T23:23:02.991Z,16.45
2018-08-28T23:25:33.591Z,16.43
2018-08-28T23:28:03.942Z,16.44
2018-08-28T23:30:34.415Z,16.39
2018-08-28T23:33:05.412Z,16.30
2018-08-28T23:35:35.981Z,16.23
2018-08-28T23:38:06.739Z,16.23
2018-08-28T23:40:36.978Z,16.24
2018-08-28T23:43:08.639Z,16.19
2018-08-28T23:45:39.245Z,16.13
2018-08-28T23:48:10.285Z,16.10
2018-08-28T23:50:40.726Z,16.11
2018-08-28T23:53:11.424Z,16.12
2018-08-28T23:55:42.134Z,16.14
2018-08-28T23:58:13.200Z,16.13
